Observation data for Slaton on 11/18/2019      Previous  Date       Current Mesonet Observations  Soil Data  Daily Summary Page  Observations in Plain Language
KSLS 180600Z 21008KT 04/01 A3008 RMK A01 T00400010  RH  082%=      5-min Rain = 0
KSLS 180605Z 21008KT 04/01 A3008 RMK A01 T00400010  RH  082%=      5-min Rain = 0
KSLS 180610Z 21008KT 04/01 A3008 RMK A01 T00400010  RH  082%=      5-min Rain = 0
KSLS 180615Z 21008KT 04/01 A3008 RMK A01 T00400011  RH  082%=      5-min Rain = 0
KSLS 180620Z 21008KT 04/01 A3008 RMK A01 T00400011  RH  082%=      5-min Rain = 0
KSLS 180625Z 21008KT 04/01 A3007 RMK A01 T00400011  RH  083%=      5-min Rain = 0
KSLS 180630Z 21008KT 04/01 A3007 RMK A01 T00420012  RH  082%=      5-min Rain = 0
KSLS 180635Z 22008KT 04/01 A3007 RMK A01 T00420013  RH  082%=      5-min Rain = 0
KSLS 180640Z 22008KT 04/01 A3007 RMK A01 T00430013  RH  082%=      5-min Rain = 0
KSLS 180645Z 22009KT 04/01 A3006 RMK A01 T00440014  RH  082%=      5-min Rain = 0
KSLS 180650Z 22008KT 05/01 A3006 RMK A01 T00450014  RH  081%=      5-min Rain = 0
KSLS 180655Z 22007KT 05/01 A3006 RMK A01 T00460014  RH  081%=      5-min Rain = 0
KSLS 180700Z 22007KT 05/01 A3006 RMK A01 T00460014  RH  081%=      5-min Rain = 0
KSLS 180705Z 22007KT 05/01 A3005 RMK A01 T00460013  RH  080%=      5-min Rain = 0
KSLS 180710Z 22007KT 05/01 A3005 RMK A01 T00470013  RH  080%=      5-min Rain = 0
KSLS 180715Z 22007KT 05/01 A3005 RMK A01 T00450012  RH  080%=      5-min Rain = 0
KSLS 180720Z 22006KT 04/01 A3004 RMK A01 T00430012  RH  081%=      5-min Rain = 0
KSLS 180725Z 23007KT 04/01 A3004 RMK A01 T00440012  RH  081%=      5-min Rain = 0
KSLS 180730Z 23006KT 05/01 A3004 RMK A01 T00450010  RH  079%=      5-min Rain = 0
KSLS 180735Z 24006KT 04/01 A3004 RMK A01 T00430009  RH  080%=      5-min Rain = 0
KSLS 180740Z 24007KT 05/01 A3004 RMK A01 T00460012  RH  080%=      5-min Rain = 0
KSLS 180745Z 24008KT 04/01 A3004 RMK A01 T00440011  RH  080%=      5-min Rain = 0
KSLS 180750Z 24008KT 04/01 A3004 RMK A01 T00410010  RH  081%=      5-min Rain = 0
KSLS 180755Z 24008KT 04/01 A3004 RMK A01 T00410010  RH  081%=      5-min Rain = 0
KSLS 180800Z 24008KT 04/01 A3004 RMK A01 T00410010  RH  081%=      5-min Rain = 0
KSLS 180805Z 24007KT 04/01 A3003 RMK A01 T00410010  RH  082%=      5-min Rain = 0
KSLS 180810Z 24007KT 04/01 A3003 RMK A01 T00420011  RH  081%=      5-min Rain = 0
KSLS 180815Z 24008KT 04/01 A3003 RMK A01 T00420011  RH  081%=      5-min Rain = 0
KSLS 180820Z 24008KT 04/01 A3003 RMK A01 T00410012  RH  082%=      5-min Rain = 0
KSLS 180825Z 24008KT 04/01 A3002 RMK A01 T00410012  RH  082%=      5-min Rain = 0
KSLS 180830Z 24008KT 04/01 A3002 RMK A01 T00390011  RH  083%=      5-min Rain = 0
KSLS 180835Z 24008KT 04/01 A3002 RMK A01 T00370010  RH  084%=      5-min Rain = 0
KSLS 180840Z 25008KT 04/01 A3002 RMK A01 T00350009  RH  084%=      5-min Rain = 0
KSLS 180845Z 25008KT 03/01 A3002 RMK A01 T00310007  RH  085%=      5-min Rain = 0
KSLS 180850Z 24008KT 03/01 A3002 RMK A01 T00290007  RH  086%=      5-min Rain = 0
KSLS 180855Z 24007KT 03/01 A3002 RMK A01 T00290007  RH  086%=      5-min Rain = 0
KSLS 180900Z 24008KT 03/01 A3002 RMK A01 T00280006  RH  087%=      5-min Rain = 0
KSLS 180905Z 24008KT 03/01 A3001 RMK A01 T00300009  RH  087%=      5-min Rain = 0
KSLS 180910Z 25008KT 03/01 A3002 RMK A01 T00320009  RH  086%=      5-min Rain = 0
KSLS 180915Z 25007KT 03/01 A3002 RMK A01 T00330009  RH  085%=      5-min Rain = 0
KSLS 180920Z 25007KT 03/01 A3002 RMK A01 T00330008  RH  085%=      5-min Rain = 0
KSLS 180925Z 25007KT 03/01 A3001 RMK A01 T00320007  RH  085%=      5-min Rain = 0
KSLS 180930Z 25007KT 03/01 A3001 RMK A01 T00300007  RH  086%=      5-min Rain = 0
KSLS 180935Z 24007KT 03/01 A3001 RMK A01 T00280006  RH  086%=      5-min Rain = 0
KSLS 180940Z 25007KT 03/01 A3001 RMK A01 T00260005  RH  087%=      5-min Rain = 0
KSLS 180945Z 25007KT 02/00 A3001 RMK A01 T00240004  RH  087%=      5-min Rain = 0
KSLS 180950Z 25008KT 03/01 A3001 RMK A01 T00290008  RH  087%=      5-min Rain = 0
KSLS 180955Z 25008KT 03/01 A3001 RMK A01 T00320008  RH  085%=      5-min Rain = 0
KSLS 181000Z 25007KT 03/01 A3001 RMK A01 T00300007  RH  085%=      5-min Rain = 0
KSLS 181005Z 25007KT 03/01 A3001 RMK A01 T00320008  RH  085%=      5-min Rain = 0
KSLS 181010Z 25008KT 04/01 A3001 RMK A01 T00360010  RH  084%=      5-min Rain = 0
KSLS 181015Z 25008KT 04/01 A30 RMK A01 T00370009  RH  083%=      5-min Rain = 0
KSLS 181020Z 25009KT 04/01 A30 RMK A01 T00390010  RH  082%=      5-min Rain = 0
KSLS 181025Z 25008KT 04/01 A30 RMK A01 T00390009  RH  082%=      5-min Rain = 0
KSLS 181030Z 25007KT 04/01 A2999 RMK A01 T00390009  RH  082%=      5-min Rain = 0
KSLS 181035Z 25008KT 04/01 A2999 RMK A01 T00390009  RH  082%=      5-min Rain = 0
KSLS 181040Z 25008KT 04/01 A2999 RMK A01 T00390009  RH  082%=      5-min Rain = 0
KSLS 181045Z 25008KT 04/01 A2998 RMK A01 T00380009  RH  082%=      5-min Rain = 0
KSLS 181050Z 24008KT 04/01 A2998 RMK A01 T00370009  RH  083%=      5-min Rain = 0
KSLS 181055Z 24008KT 04/01 A2998 RMK A01 T00390010  RH  082%=      5-min Rain = 0
KSLS 181100Z 24008KT 04/01 A2998 RMK A01 T00400010  RH  082%=      5-min Rain = 0
KSLS 181105Z 24008KT 04/01 A2998 RMK A01 T00410010  RH  081%=      5-min Rain = 0
KSLS 181110Z 25008KT 04/01 A2998 RMK A01 T00420009  RH  080%=      5-min Rain = 0
KSLS 181115Z 25008KT 04/01 A2998 RMK A01 T00420009  RH  080%=      5-min Rain = 0
KSLS 181120Z 25008KT 04/01 A2998 RMK A01 T00420009  RH  080%=      5-min Rain = 0
KSLS 181125Z 24008KT 04/01 A2998 RMK A01 T00410009  RH  080%=      5-min Rain = 0
KSLS 181130Z 24007KT 04/01 A2998 RMK A01 T00400009  RH  081%=      5-min Rain = 0
KSLS 181135Z 25009KT 04/01 A2998 RMK A01 T00410010  RH  081%=      5-min Rain = 0
KSLS 181140Z 25009KT 04/01 A2998 RMK A01 T00430010  RH  080%=      5-min Rain = 0
KSLS 181145Z 25008KT 04/01 A2998 RMK A01 T00440010  RH  079%=      5-min Rain = 0
KSLS 181150Z 25009KT 04/01 A2999 RMK A01 T00430009  RH  079%=      5-min Rain = 0
KSLS 181155Z 25008KT 04/01 A2998 RMK A01 T00430009  RH  080%=      5-min Rain = 0
KSLS 181200Z 25008KT 04/01 A2998 RMK A01 T00420008  RH  080%=      5-min Rain = 0
KSLS 181205Z 25008KT 04/01 A2998 RMK A01 T00400008  RH  081%=      5-min Rain = 0
KSLS 181210Z 25009KT 04/01 A2998 RMK A01 T00410009  RH  081%=      5-min Rain = 0
KSLS 181215Z 24009KT 04/01 A2998 RMK A01 T00410009  RH  080%=      5-min Rain = 0
KSLS 181220Z 24010KT 04/01 A2997 RMK A01 T00420010  RH  081%=      5-min Rain = 0
KSLS 181225Z 23011KT 04/01 A2997 RMK A01 T00430010  RH  080%=      5-min Rain = 0
KSLS 181230Z 24012KT 04/01 A2997 RMK A01 T00440010  RH  079%=      5-min Rain = 0
KSLS 181235Z 23011KT 04/01 A2996 RMK A01 T00430010  RH  080%=      5-min Rain = 0
KSLS 181240Z 23011KT 05/01 A2996 RMK A01 T00450011  RH  080%=      5-min Rain = 0
KSLS 181245Z 23010KT 05/01 A2996 RMK A01 T00470012  RH  079%=      5-min Rain = 0
KSLS 181250Z 23012KT 05/01 A2996 RMK A01 T00480012  RH  078%=      5-min Rain = 0
KSLS 181255Z 23011KT 05/01 A2996 RMK A01 T00480012  RH  078%=      5-min Rain = 0
KSLS 181300Z 23011KT 05/01 A2997 RMK A01 T00480012  RH  079%=      5-min Rain = 0
KSLS 181305Z 24010KT 05/01 A2997 RMK A01 T00460011  RH  079%=      5-min Rain = 0
KSLS 181310Z 24010KT 04/01 A2997 RMK A01 T00430010  RH  080%=      5-min Rain = 0
KSLS 181315Z 24010KT 04/01 A2997 RMK A01 T00400010  RH  081%=      5-min Rain = 0
KSLS 181320Z 24010KT 04/01 A2998 RMK A01 T00390009  RH  081%=      5-min Rain = 0
KSLS 181325Z 24009KT 04/01 A2998 RMK A01 T00390009  RH  082%=      5-min Rain = 0
KSLS 181330Z 24009KT 04/01 A2998 RMK A01 T00390009  RH  082%=      5-min Rain = 0
KSLS 181335Z 25007KT 04/01 A2999 RMK A01 T00380009  RH  082%=      5-min Rain = 0
KSLS 181340Z 25007KT 04/01 A2999 RMK A01 T00370009  RH  083%=      5-min Rain = 0
KSLS 181345Z 26006KT 04/01 A2999 RMK A01 T00380009  RH  083%=      5-min Rain = 0
KSLS 181350Z 26005KT 04/01 A2999 RMK A01 T00390010  RH  082%=      5-min Rain = 0
KSLS 181355Z 26004KT 04/01 A2999 RMK A01 T00410011  RH  082%=      5-min Rain = 0
KSLS 181400Z 26005KT 04/01 A2999 RMK A01 T00420011  RH  081%=      5-min Rain = 0
KSLS 181405Z 25007KT 05/01 A2998 RMK A01 T00460012  RH  080%=      5-min Rain = 0
KSLS 181410Z 25006KT 05/01 A2999 RMK A01 T00490013  RH  078%=      5-min Rain = 0
KSLS 181415Z 26007KT 05/01 A2999 RMK A01 T00510014  RH  078%=      5-min Rain = 0
KSLS 181420Z 26006KT 06/02 A2999 RMK A01 T00550015  RH  077%=      5-min Rain = 0
KSLS 181425Z 27005KT 06/02 A2999 RMK A01 T00580017  RH  076%=      5-min Rain = 0
KSLS 181430Z 27006KT 06/02 A30 RMK A01 T00610018  RH  075%=      5-min Rain = 0
KSLS 181435Z 27006KT 06/02 A30 RMK A01 T00640018  RH  073%=      5-min Rain = 0
KSLS 181440Z 27007KT 07/02 A30 RMK A01 T00660018  RH  072%=      5-min Rain = 0
KSLS 181445Z 27007KT 07/02 A30 RMK A01 T00680018  RH  071%=      5-min Rain = 0
KSLS 181450Z 26008KT 07/02 A30 RMK A01 T00720020  RH  070%=      5-min Rain = 0
KSLS 181455Z 26008KT 08/02 A30 RMK A01 T00770022  RH  069%=      5-min Rain = 0
KSLS 181500Z 26009KT 08/02 A30 RMK A01 T00800022  RH  067%=      5-min Rain = 0
KSLS 181505Z 25008KT 09/02 A2999 RMK A01 T00850023  RH  066%=      5-min Rain = 0
KSLS 181510Z 25009KT 09/03 A2999 RMK A01 T00930025  RH  063%=      5-min Rain = 0
KSLS 181515Z 25010KT 10/02 A2999 RMK A01 T00960023  RH  061%=      5-min Rain = 0
KSLS 181520Z 25010KT 10/02 A2999 RMK A01 T00990024  RH  060%=      5-min Rain = 0
KSLS 181525Z 25010KT 10/03 A2999 RMK A01 T01030027  RH  060%=      5-min Rain = 0
KSLS 181530Z 25010KT 11/03 A2999 RMK A01 T01060027  RH  059%=      5-min Rain = 0
KSLS 181535Z 25009KT 11/03 A2998 RMK A01 T01100029  RH  058%=      5-min Rain = 0
KSLS 181540Z 25009KT 11/03 A2998 RMK A01 T01120028  RH  057%=      5-min Rain = 0
KSLS 181545Z 25010KT 12/03 A2998 RMK A01 T01190032  RH  056%=      5-min Rain = 0
KSLS 181550Z 25009KT 12/03 A2999 RMK A01 T01220030  RH  054%=      5-min Rain = 0
KSLS 181555Z 25010G15KT 13/03 A2999 RMK A01 T01250030  RH  053%=      5-min Rain = 0
KSLS 181600Z 25011KT 13/03 A2998 RMK A01 T01270027  RH  051%=      5-min Rain = 0
KSLS 181605Z 25010KT 13/03 A2998 RMK A01 T01310029  RH  051%=      5-min Rain = 0
KSLS 181610Z 25009KT 13/03 A2999 RMK A01 T01340030  RH  050%=      5-min Rain = 0
KSLS 181615Z 26008KT 14/03 A2999 RMK A01 T01360029  RH  049%=      5-min Rain = 0
KSLS 181620Z 25007KT 14/03 A2999 RMK A01 T01380030  RH  048%=      5-min Rain = 0
KSLS 181625Z 25006KT 14/03 A2998 RMK A01 T01430032  RH  048%=      5-min Rain = 0
KSLS 181630Z 25007KT 15/03 A2998 RMK A01 T01470033  RH  047%=      5-min Rain = 0
KSLS 181635Z 25006KT 15/03 A2998 RMK A01 T01490032  RH  046%=      5-min Rain = 0
KSLS 181640Z 26006KT 15/03 A2998 RMK A01 T01530034  RH  045%=      5-min Rain = 0
KSLS 181645Z 27007KT 16/03 A2998 RMK A01 T01550028  RH  043%=      5-min Rain = 0
KSLS 181650Z 27007KT 16/03 A2998 RMK A01 T01590032  RH  043%=      5-min Rain = 0
KSLS 181655Z 26007KT 16/03 A2998 RMK A01 T01600029  RH  042%=      5-min Rain = 0
KSLS 181700Z 28008KT 16/03 A2998 RMK A01 T01640029  RH  041%=      5-min Rain = 0
KSLS 181705Z 29010KT 17/02 A2998 RMK A01 T01690022  RH  038%=      5-min Rain = 0
KSLS 181710Z 29009KT 17/02 A2998 RMK A01 T01710015  RH  035%=      5-min Rain = 0
KSLS 181715Z 28008KT 17/02 A2997 RMK A01 T01740018  RH  035%=      5-min Rain = 0
KSLS 181720Z 31010KT 18/01 A2997 RMK A01 T01750006  RH  032%=      5-min Rain = 0
KSLS 181725Z 30008KT 18/01 A2997 RMK A01 T01750009  RH  033%=      5-min Rain = 0
KSLS 181730Z 29008KT 18/01 A2997 RMK A01 T01760007  RH  032%=      5-min Rain = 0
KSLS 181735Z 29006KT 18/01 A2997 RMK A01 T01760008  RH  032%=      5-min Rain = 0
KSLS 181740Z 29006KT 18/01 A2997 RMK A01 T01770006  RH  032%=      5-min Rain = 0
KSLS 181745Z 28006KT 18/01 A2997 RMK A01 T01790009  RH  032%=      5-min Rain = 0
KSLS 181750Z 29003KT 18/01 A2997 RMK A01 T01800012  RH  033%=      5-min Rain = 0
KSLS 181755Z 28004KT 18/01 A2996 RMK A01 T01840011  RH  032%=      5-min Rain = 0
KSLS 181800Z 25003KT 18/01 A2996 RMK A01 T01810005  RH  031%=      5-min Rain = 0
KSLS 181805Z 29003KT 18/00 A2995 RMK A01 T01840002  RH  030%=      5-min Rain = 0
KSLS 181810Z 25004KT 18/00 A2995 RMK A01 T01840001  RH  029%=      5-min Rain = 0
KSLS 181815Z 26004KT 19/01 A2995 RMK A01 T01850006  RH  030%=      5-min Rain = 0
KSLS 181820Z 22003KT 19/M00 A2994 RMK A01 T01861001  RH  029%=      5-min Rain = 0
KSLS 181825Z 29005KT 19/00 A2994 RMK A01 T01890003  RH  029%=      5-min Rain = 0
KSLS 181830Z 29005KT 19/00 A2994 RMK A01 T01880002  RH  029%=      5-min Rain = 0
KSLS 181835Z 28004KT 19/00 A2993 RMK A01 T01900001  RH  028%=      5-min Rain = 0
KSLS 181840Z 28006KT 19/00 A2993 RMK A01 T01920002  RH  028%=      5-min Rain = 0
KSLS 181845Z 29004KT 19/00 A2993 RMK A01 T01930002  RH  028%=      5-min Rain = 0
KSLS 181850Z 24003KT 20/01 A2992 RMK A01 T01960006  RH  028%=      5-min Rain = 0
KSLS 181855Z 23001KT 20/00 A2992 RMK A01 T02040003  RH  027%=      5-min Rain = 0
KSLS 181900Z 26003KT 20/00 A2992 RMK A01 T02020001  RH  026%=      5-min Rain = 0
KSLS 181905Z 24003KT 20/00 A2991 RMK A01 T02010002  RH  027%=      5-min Rain = 0
KSLS 181910Z 24005KT 20/00 A2991 RMK A01 T02010002  RH  027%=      5-min Rain = 0
KSLS 181915Z 23004KT 20/M01 A2991 RMK A01 T02001005  RH  025%=      5-min Rain = 0
KSLS 181920Z 23002KT 20/M01 A2991 RMK A01 T02041007  RH  024%=      5-min Rain = 0
KSLS 181925Z 25003G8KT 21/M01 A2991 RMK A01 T02051006  RH  025%=      5-min Rain = 0
KSLS 181930Z 27004KT 20/M00 A2991 RMK A01 T02041003  RH  025%=      5-min Rain = 0
KSLS 181935Z 28004KT 20/M01 A2991 RMK A01 T02021009  RH  024%=      5-min Rain = 0
KSLS 181940Z 28003KT 21/M01 A299 RMK A01 T02051005  RH  025%=      5-min Rain = 0
KSLS 181945Z 28004KT 21/M01 A299 RMK A01 T02071006  RH  024%=      5-min Rain = 0
KSLS 181950Z 29002KT 21/M00 A299 RMK A01 T02081004  RH  025%=      5-min Rain = 0
KSLS 181955Z 27003KT 21/M01 A299 RMK A01 T02101009  RH  023%=      5-min Rain = 0
KSLS 182000Z 25003KT 21/M01 A299 RMK A01 T02101007  RH  024%=      5-min Rain = 0
KSLS 182005Z 27003KT 21/M01 A299 RMK A01 T02111010  RH  023%=      5-min Rain = 0
KSLS 182010Z 30004KT 21/M01 A299 RMK A01 T02071012  RH  023%=      5-min Rain = 0
KSLS 182015Z 32001KT 21/M02 A2989 RMK A01 T02061015  RH  023%=      5-min Rain = 0
KSLS 182020Z 24002KT 21/M01 A2989 RMK A01 T02121009  RH  023%=      5-min Rain = 0
KSLS 182025Z 32004KT 21/M01 A2989 RMK A01 T02141005  RH  023%=      5-min Rain = 0
KSLS 182030Z 27002KT 22/M01 A2989 RMK A01 T02151012  RH  022%=      5-min Rain = 0
KSLS 182035Z 30005KT 21/M01 A2989 RMK A01 T02131013  RH  022%=      5-min Rain = 0
KSLS 182040Z 30003KT 21/M01 A2989 RMK A01 T02101010  RH  023%=      5-min Rain = 0
KSLS 182045Z 30004KT 21/M01 A2989 RMK A01 T02141010  RH  023%=      5-min Rain = 0
KSLS 182050Z 33004KT 21/M01 A2989 RMK A01 T02121012  RH  023%=      5-min Rain = 0
KSLS 182055Z 34003KT 21/M01 A2989 RMK A01 T02121014  RH  022%=      5-min Rain = 0
KSLS 182100Z 30004KT 22/M00 A2989 RMK A01 T02161003  RH  023%=      5-min Rain = 0
KSLS 182105Z 29004KT 21/M01 A2989 RMK A01 T02131006  RH  023%=      5-min Rain = 0
KSLS 182110Z 28003KT 22/M00 A2989 RMK A01 T02151002  RH  024%=      5-min Rain = 0
KSLS 182115Z 30004KT 22/M00 A2989 RMK A01 T02161001  RH  024%=      5-min Rain = 0
KSLS 182120Z 32005KT 22/M01 A299 RMK A01 T02151006  RH  023%=      5-min Rain = 0
KSLS 182125Z 31004KT 22/M01 A299 RMK A01 T02151006  RH  023%=      5-min Rain = 0
KSLS 182130Z 35006KT 22/M01 A299 RMK A01 T02161007  RH  023%=      5-min Rain = 0
KSLS 182135Z 35005KT 22/M01 A299 RMK A01 T02171006  RH  023%=      5-min Rain = 0
KSLS 182140Z 35005KT 22/M01 A299 RMK A01 T02171005  RH  023%=      5-min Rain = 0
KSLS 182145Z 35006KT 22/M00 A299 RMK A01 T02181004  RH  023%=      5-min Rain = 0
KSLS 182150Z 35006KT 22/M00 A299 RMK A01 T02171004  RH  023%=      5-min Rain = 0
KSLS 182155Z 33005KT 22/M01 A299 RMK A01 T02151006  RH  023%=      5-min Rain = 0
KSLS 182200Z 34004KT 21/M01 A299 RMK A01 T02141006  RH  023%=      5-min Rain = 0
KSLS 182205Z 34006KT 22/M00 A299 RMK A01 T02151003  RH  024%=      5-min Rain = 0
KSLS 182210Z 34005KT 22/M00 A299 RMK A01 T02151001  RH  024%=      5-min Rain = 0
KSLS 182215Z 34004KT 21/M00 A299 RMK A01 T02141003  RH  024%=      5-min Rain = 0
KSLS 182220Z 35003KT 22/M00 A2991 RMK A01 T02151001  RH  024%=      5-min Rain = 0
KSLS 182225Z 00004KT 22/M00 A299 RMK A01 T02151002  RH  024%=      5-min Rain = 0
KSLS 182230Z 02003KT 21/M00 A299 RMK A01 T02131003  RH  024%=      5-min Rain = 0
KSLS 182235Z 36003KT 21/M00 A299 RMK A01 T02131004  RH  024%=      5-min Rain = 0
KSLS 182240Z 01003KT 21/M00 A299 RMK A01 T02131001  RH  024%=      5-min Rain = 0
KSLS 182245Z 03004KT 21/M00 A299 RMK A01 T02111001  RH  025%=      5-min Rain = 0
KSLS 182250Z 03004KT 21/M00 A2991 RMK A01 T02091002  RH  025%=      5-min Rain = 0
KSLS 182255Z 03003KT 21/M00 A2991 RMK A01 T02091002  RH  025%=      5-min Rain = 0
KSLS 182300Z 04003KT 21/M00 A2991 RMK A01 T02091002  RH  025%=      5-min Rain = 0
KSLS 182305Z 04003KT 21/M00 A2991 RMK A01 T02061002  RH  025%=      5-min Rain = 0
KSLS 182310Z 04003KT 20/M00 A2991 RMK A01 T02031002  RH  026%=      5-min Rain = 0
KSLS 182315Z 07001KT 20/00 A2991 RMK A01 T02020001  RH  026%=      5-min Rain = 0
KSLS 182320Z 10002KT 20/01 A2991 RMK A01 T01990006  RH  028%=      5-min Rain = 0
KSLS 182325Z 10003KT 19/01 A2991 RMK A01 T01930008  RH  029%=      5-min Rain = 0
KSLS 182330Z 09002KT 19/01 A2991 RMK A01 T01920005  RH  029%=      5-min Rain = 0
KSLS 182335Z 08002KT 19/00 A2991 RMK A01 T01900003  RH  029%=      5-min Rain = 0
KSLS 182340Z 08003KT 18/00 A2991 RMK A01 T01840003  RH  030%=      5-min Rain = 0
KSLS 182345Z 09003KT 18/00 A2992 RMK A01 T01760004  RH  031%=      5-min Rain = 0
KSLS 182350Z 10004KT 17/00 A2991 RMK A01 T01710003  RH  033%=      5-min Rain = 0
KSLS 182355Z 10004KT 17/00 A2991 RMK A01 T01660004  RH  034%=      5-min Rain = 0
KSLS 190000Z 11004KT 16/00 A2992 RMK A01 T01630003  RH  034%=      5-min Rain = 0
KSLS 190005Z 13004KT 16/00 A2992 RMK A01 T01610001  RH  034%=      5-min Rain = 0
KSLS 190010Z 13005KT 16/00 A2992 RMK A01 T01570001  RH  035%=      5-min Rain = 0
KSLS 190015Z 13005KT 15/00 A2992 RMK A01 T01470003  RH  038%=      5-min Rain = 0
KSLS 190020Z 12005KT 15/00 A2992 RMK A01 T01510001  RH  036%=      5-min Rain = 0
KSLS 190025Z 11005KT 16/M00 A2992 RMK A01 T01581001  RH  034%=      5-min Rain = 0
KSLS 190030Z 11005KT 16/M00 A2993 RMK A01 T01571003  RH  034%=      5-min Rain = 0
KSLS 190035Z 10005KT 16/M00 A2993 RMK A01 T01591003  RH  033%=      5-min Rain = 0
KSLS 190040Z 09005KT 16/M00 A2993 RMK A01 T01591002  RH  034%=      5-min Rain = 0
KSLS 190045Z 09003KT 16/M00 A2993 RMK A01 T01571001  RH  034%=      5-min Rain = 0
KSLS 190050Z 07002KT 16/00 A2993 RMK A01 T01550000  RH  035%=      5-min Rain = 0
KSLS 190055Z 06002KT 16/M00 A2994 RMK A01 T01551003  RH  034%=      5-min Rain = 0
KSLS 190100Z 06002KT 16/M01 A2994 RMK A01 T01551005  RH  034%=      5-min Rain = 0
KSLS 190105Z 06001KT 15/M01 A2994 RMK A01 T01511007  RH  034%=      5-min Rain = 0
KSLS 190110Z 06001KT 15/M01 A2994 RMK A01 T01521007  RH  034%=      5-min Rain = 0
KSLS 190115Z 06002KT 15/M01 A2994 RMK A01 T01531007  RH  034%=      5-min Rain = 0
KSLS 190120Z 05002KT 16/M01 A2995 RMK A01 T01551007  RH  033%=      5-min Rain = 0
KSLS 190125Z 05002KT 15/M01 A2995 RMK A01 T01541007  RH  034%=      5-min Rain = 0
KSLS 190130Z 06002KT 16/M01 A2995 RMK A01 T01551007  RH  033%=      5-min Rain = 0
KSLS 190135Z 06002KT 16/M01 A2996 RMK A01 T01571006  RH  033%=      5-min Rain = 0
KSLS 190140Z 06002KT 16/M01 A2996 RMK A01 T01571006  RH  033%=      5-min Rain = 0
KSLS 190145Z 05002KT 16/M01 A2996 RMK A01 T01571006  RH  033%=      5-min Rain = 0
KSLS 190150Z 04001KT 16/M01 A2996 RMK A01 T01591006  RH  033%=      5-min Rain = 0
KSLS 190155Z 02002KT 16/M01 A2996 RMK A01 T01581006  RH  033%=      5-min Rain = 0
KSLS 190200Z 02002KT 16/M01 A2996 RMK A01 T01551006  RH  034%=      5-min Rain = 0
KSLS 190205Z 02002KT 15/M01 A2996 RMK A01 T01461006  RH  036%=      5-min Rain = 0
KSLS 190210Z 02002KT 14/M00 A2997 RMK A01 T01421004  RH  037%=      5-min Rain = 0
KSLS 190215Z 02002KT 14/M00 A2997 RMK A01 T01431003  RH  037%=      5-min Rain = 0
KSLS 190220Z 03001KT 14/M00 A2997 RMK A01 T01411003  RH  038%=      5-min Rain = 0
KSLS 190225Z 06001KT 13/M00 A2997 RMK A01 T01331002  RH  040%=      5-min Rain = 0
KSLS 190230Z 07002KT 13/M00 A2997 RMK A01 T01311003  RH  040%=      5-min Rain = 0
KSLS 190235Z 06003KT 13/M00 A2997 RMK A01 T01321003  RH  040%=      5-min Rain = 0
KSLS 190240Z 05002KT 14/M00 A2997 RMK A01 T01351002  RH  039%=      5-min Rain = 0
KSLS 190245Z 05002KT 14/M00 A2997 RMK A01 T01391003  RH  038%=      5-min Rain = 0
KSLS 190250Z 05002KT 14/M00 A2997 RMK A01 T01411003  RH  038%=      5-min Rain = 0
KSLS 190255Z 07002KT 14/M00 A2997 RMK A01 T01371004  RH  038%=      5-min Rain = 0
KSLS 190300Z 07002KT 14/M00 A2997 RMK A01 T01361003  RH  039%=      5-min Rain = 0
KSLS 190305Z 06003KT 14/M00 A2997 RMK A01 T01401003  RH  038%=      5-min Rain = 0
KSLS 190310Z 06002KT 14/M00 A2997 RMK A01 T01411003  RH  038%=      5-min Rain = 0
KSLS 190315Z 08001KT 14/M00 A2997 RMK A01 T01381003  RH  038%=      5-min Rain = 0
KSLS 190320Z 05002KT 14/M00 A2997 RMK A01 T01391003  RH  038%=      5-min Rain = 0
KSLS 190325Z 05002KT 14/M00 A2997 RMK A01 T01431003  RH  037%=      5-min Rain = 0
KSLS 190330Z 08002KT 14/M00 A2998 RMK A01 T01411004  RH  037%=      5-min Rain = 0
KSLS 190335Z 12002KT 11/00 A2998 RMK A01 T01080002  RH  049%=      5-min Rain = 0
KSLS 190340Z 13002KT 09/01 A2998 RMK A01 T00910009  RH  057%=      5-min Rain = 0
KSLS 190345Z 13002KT 10/01 A2998 RMK A01 T01030007  RH  052%=      5-min Rain = 0
KSLS 190350Z 15002KT 11/00 A2998 RMK A01 T01060004  RH  050%=      5-min Rain = 0
KSLS 190355Z 16002KT 10/00 A2998 RMK A01 T01040004  RH  051%=      5-min Rain = 0
KSLS 190400Z 15002KT 12/00 A2998 RMK A01 T01160002  RH  046%=      5-min Rain = 0
KSLS 190405Z 17003KT 12/00 A2998 RMK A01 T01160002  RH  046%=      5-min Rain = 0
KSLS 190410Z 18002KT 10/00 A2998 RMK A01 T01040004  RH  050%=      5-min Rain = 0
KSLS 190415Z 19002KT 11/00 A2998 RMK A01 T01070003  RH  049%=      5-min Rain = 0
KSLS 190420Z 18003KT 11/00 A2998 RMK A01 T01140001  RH  046%=      5-min Rain = 0
KSLS 190425Z 18002KT 12/M00 A2998 RMK A01 T01191001  RH  044%=      5-min Rain = 0
KSLS 190430Z 16003KT 12/M00 A2998 RMK A01 T01241002  RH  042%=      5-min Rain = 0
KSLS 190435Z 17003KT 12/M00 A2998 RMK A01 T01221002  RH  043%=      5-min Rain = 0
KSLS 190440Z 17003KT 12/M00 A2998 RMK A01 T01181001  RH  044%=      5-min Rain = 0
KSLS 190445Z 13003KT 12/M00 A2998 RMK A01 T01191002  RH  044%=      5-min Rain = 0
KSLS 190450Z 12003KT 12/M00 A2998 RMK A01 T01241003  RH  042%=      5-min Rain = 0
KSLS 190455Z 11002KT 12/M00 A2998 RMK A01 T01231003  RH  042%=      5-min Rain = 0
KSLS 190500Z 10001KT 12/M00 A2998 RMK A01 T01191004  RH  043%=      5-min Rain = 0
KSLS 190505Z 07001KT 12/M00 A2998 RMK A01 T01201003  RH  043%=      5-min Rain = 0
KSLS 190510Z 09002KT 12/M00 A2998 RMK A01 T01181004  RH  044%=      5-min Rain = 0
KSLS 190515Z 11002KT 12/M00 A2998 RMK A01 T01161004  RH  044%=      5-min Rain = 0
KSLS 190520Z 15002KT 11/00 A2998 RMK A01 T011000-0  RH  047%=      5-min Rain = 0
KSLS 190525Z 16003KT 11/00 A2998 RMK A01 T01060001  RH  049%=      5-min Rain = 0
KSLS 190530Z 15003KT 11/00 A2998 RMK A01 T01100000  RH  047%=      5-min Rain = 0
KSLS 190535Z 14003KT 11/00 A2998 RMK A01 T01120000  RH  047%=      5-min Rain = 0
KSLS 190540Z 14003KT 11/00 A2998 RMK A01 T01110002  RH  047%=      5-min Rain = 0
KSLS 190545Z 14003KT 11/00 A2998 RMK A01 T01130001  RH  047%=      5-min Rain = 0
KSLS 190550Z 17002KT 11/00 A2998 RMK A01 T01090001  RH  047%=      5-min Rain = 0
KSLS 190555Z 15003KT 11/00 A2997 RMK A01 T01050002  RH  049%=      5-min Rain = 0

Page generated in 0.0177 seconds.